Kenneth Carl — WDF8246 — position and weather

sailwx.info

Track history (hours):
 
Tides and Currents Weather Stations Pressure Air Temp Water Temp Dewpoint Dewpoint Depression Visibility Wind Speed Wind Dir Waves Ship Positions

Kenneth Carl

Owner: So. Cal. Ship Services, Inc., San Pedro, CA. More information available from US FCC via Universal Licensing System and Coast Guard Vessel Documentation Center.

Last reported at 2015-Feb-27 07:23 UTC. Time now 2015-Mar-02 05:09 UTC.
Position N 33°44' W 118°16'.

Length 31 m; draft 3 m.

Type: Ship. MMSI: 367492920.

Date/timePositionNaut miles runAvg speedWind from/ knotsBaromVisibWave heightAir tempDewpointWater temp
2015-Feb-27 07:23N 33°44' W 118°16'0 0.0
2015-Feb-27 06:33N 33°44' W 118°16'0 0.0
2015-Feb-27 05:33N 33°44' W 118°16'0 0.0
2015-Feb-27 04:33N 33°44' W 118°16'0 0.0
2015-Feb-27 03:33N 33°44' W 118°16'0 0.0
2015-Feb-27 02:12N 33°44' W 118°16'0 0.0
2015-Feb-27 01:32N 33°44' W 118°16'0 0.0
2015-Feb-27 00:34N 33°44' W 118°16'0 0.0
2015-Feb-26 22:33N 33°44' W 118°16'0 0.0
2015-Feb-26 21:34N 33°44' W 118°16'3 2.1
2015-Feb-26 20:13N 33°42' W 118°14'710.3
2015-Feb-26 19:33N 33°36' W 118°10'2 2.0
2015-Feb-26 18:33N 33°35' W 118°08'0 0.0
2015-Feb-26 17:33N 33°35' W 118°08'0 0.0
2015-Feb-26 16:33N 33°35' W 118°08'0 0.0
2015-Feb-26 15:33N 33°35' W 118°08'5 3.3
2015-Feb-26 14:09N 33°38' W 118°12'610.0
2015-Feb-26 13:33N 33°43' W 118°16'1 1.0
2015-Feb-26 12:20N 33°44' W 118°16'0 0.0
2015-Feb-26 09:14N 33°44' W 118°16'0 0.0
2015-Feb-26 06:26N 33°44' W 118°16'0 0.0
2015-Feb-26 05:32N 33°44' W 118°16'0 0.0
2015-Feb-26 04:20N 33°44' W 118°16'0 0.0
2015-Feb-26 02:05N 33°44' W 118°16'0 0.0
2015-Feb-26 01:29N 33°44' W 118°16'0 0.0
2015-Feb-26 00:25N 33°44' W 118°16'6 6.7
2015-Feb-25 23:27N 33°39' W 118°11'6 6.5
2015-Feb-25 22:34N 33°34' W 118°07'1 0.6
2015-Feb-25 21:34N 33°34' W 118°07'1 1.3
2015-Feb-25 20:34N 33°35' W 118°08'0 0.0
2015-Feb-25 19:25N 33°35' W 118°08'0 0.0
2015-Feb-25 18:15N 33°35' W 118°08'12 1.2
2015-Feb-25 08:19N 33°44' W 118°16'0 0.0
2015-Feb-25 07:31N 33°44' W 118°16'0 0.0
2015-Feb-25 05:07N 33°44' W 118°16'0 0.0
2015-Feb-25 04:31N 33°44' W 118°16'0 0.0
2015-Feb-25 03:31N 33°44' W 118°16'0 0.0
2015-Feb-25 02:16N 33°44' W 118°16'0 0.0
2015-Feb-25 01:31N 33°44' W 118°16'0 0.0
2015-Feb-25 00:31N 33°44' W 118°16'0 0.4
2015-Feb-24 23:31N 33°44' W 118°16'1 0.6
2015-Feb-24 22:33N 33°43' W 118°16'11 7.3
2015-Feb-24 21:04N 33°35' W 118°08'0 0.3
2015-Feb-24 20:33N 33°35' W 118°08'0 0.0
2015-Feb-24 17:22N 33°35' W 118°08'  
2015-Feb-20 21:05N 33°35' W 118°08'0 0.0
2015-Feb-20 19:05N 33°35' W 118°08'0 0.0
2015-Feb-20 18:33N 33°35' W 118°08'1 0.9
2015-Feb-20 17:11N 33°34' W 118°07'13 3.4
2015-Feb-20 13:24N 33°44' W 118°16'0 0.0
2015-Feb-20 12:29N 33°44' W 118°16'0 0.0
2015-Feb-20 11:33N 33°44' W 118°16'0 0.0
2015-Feb-20 08:05N 33°44' W 118°16'0 0.0
2015-Feb-20 07:18N 33°44' W 118°16'0 0.0
2015-Feb-20 06:25N 33°44' W 118°16'0 0.0
2015-Feb-20 05:33N 33°44' W 118°16'0 0.0
2015-Feb-20 04:33N 33°44' W 118°16'0 0.0
2015-Feb-20 03:09N 33°44' W 118°16'0 0.0
2015-Feb-20 01:22N 33°44' W 118°16'1 1.1
2015-Feb-20 00:20N 33°43' W 118°16'10 8.5
2015-Feb-19 23:06N 33°35' W 118°08'0 0.5
2015-Feb-19 22:34N 33°35' W 118°08'0 0.2
2015-Feb-19 21:32N 33°35' W 118°08'1 1.2
2015-Feb-19 20:33N 33°34' W 118°07'0 0.0
2015-Feb-19 19:33N 33°34' W 118°07'0 0.0
2015-Feb-19 18:30N 33°34' W 118°07'0 0.0
2015-Feb-19 17:31N 33°34' W 118°07'7 7.1
2015-Feb-19 16:33N 33°39' W 118°12'4 0.3
2015-Feb-19 01:32N 33°36' W 118°09'1 1.2
2015-Feb-19 00:30N 33°35' W 118°08'0 0.1
2015-Feb-18 23:33N 33°35' W 118°08'0 0.0
2015-Feb-18 22:32N 33°35' W 118°08'0 0.0
2015-Feb-18 21:25N 33°35' W 118°08'0 0.0
2015-Feb-18 20:33N 33°35' W 118°08'12 5.8
2015-Feb-18 18:33N 33°44' W 118°16'10 1.2
2015-Feb-18 10:04N 33°36' W 118°09'1 2.2
2015-Feb-18 09:30N 33°35' W 118°08'0 0.1
2015-Feb-18 08:09N 33°35' W 118°08'0 0.0
2015-Feb-18 07:32N 33°35' W 118°08'0 0.1
2015-Feb-18 06:32N 33°35' W 118°08'8 8.4
2015-Feb-18 05:33N 33°41' W 118°14'3 1.6
2015-Feb-18 03:22N 33°44' W 118°16'0 0.0
2015-Feb-18 01:16N 33°44' W 118°16'13 2.1
2015-Feb-17 19:08N 33°34' W 118°07'1 0.8
2015-Feb-17 17:32N 33°35' W 118°08'5 4.7
2015-Feb-17 16:31N 33°39' W 118°11'  
Track history (hours):
 
Tides and Currents Weather Stations Pressure Air Temp Water Temp Dewpoint Dewpoint Depression Visibility Wind Speed Wind Dir Waves Ship Positions

Kenneth Carl

Owner: So. Cal. Ship Services, Inc., San Pedro, CA. More information available from US FCC via Universal Licensing System and Coast Guard Vessel Documentation Center.

Last reported at 2015-Feb-27 07:23 UTC. Time now 2015-Mar-02 05:09 UTC.
Position N 33°44' W 118°16'.

Length 31 m; draft 3 m.

Type: Ship. MMSI: 367492920.

Date/timePositionNaut miles runAvg speedWind from/ knotsBaromVisibWave heightAir tempDewpointWater temp
2015-Feb-27 07:23N 33°44' W 118°16'0 0.0
2015-Feb-27 06:33N 33°44' W 118°16'0 0.0
2015-Feb-27 05:33N 33°44' W 118°16'0 0.0
2015-Feb-27 04:33N 33°44' W 118°16'0 0.0
2015-Feb-27 03:33N 33°44' W 118°16'0 0.0
2015-Feb-27 02:12N 33°44' W 118°16'0 0.0
2015-Feb-27 01:32N 33°44' W 118°16'0 0.0
2015-Feb-27 00:34N 33°44' W 118°16'0 0.0
2015-Feb-26 22:33N 33°44' W 118°16'0 0.0
2015-Feb-26 21:34N 33°44' W 118°16'3 2.1
2015-Feb-26 20:13N 33°42' W 118°14'710.3
2015-Feb-26 19:33N 33°36' W 118°10'2 2.0
2015-Feb-26 18:33N 33°35' W 118°08'0 0.0
2015-Feb-26 17:33N 33°35' W 118°08'0 0.0
2015-Feb-26 16:33N 33°35' W 118°08'0 0.0
2015-Feb-26 15:33N 33°35' W 118°08'5 3.3
2015-Feb-26 14:09N 33°38' W 118°12'610.0
2015-Feb-26 13:33N 33°43' W 118°16'1 1.0
2015-Feb-26 12:20N 33°44' W 118°16'0 0.0
2015-Feb-26 09:14N 33°44' W 118°16'0 0.0
2015-Feb-26 06:26N 33°44' W 118°16'0 0.0
2015-Feb-26 05:32N 33°44' W 118°16'0 0.0
2015-Feb-26 04:20N 33°44' W 118°16'0 0.0
2015-Feb-26 02:05N 33°44' W 118°16'0 0.0
2015-Feb-26 01:29N 33°44' W 118°16'0 0.0
2015-Feb-26 00:25N 33°44' W 118°16'6 6.7
2015-Feb-25 23:27N 33°39' W 118°11'6 6.5
2015-Feb-25 22:34N 33°34' W 118°07'1 0.6
2015-Feb-25 21:34N 33°34' W 118°07'1 1.3
2015-Feb-25 20:34N 33°35' W 118°08'0 0.0
2015-Feb-25 19:25N 33°35' W 118°08'0 0.0
2015-Feb-25 18:15N 33°35' W 118°08'12 1.2
2015-Feb-25 08:19N 33°44' W 118°16'0 0.0
2015-Feb-25 07:31N 33°44' W 118°16'0 0.0
2015-Feb-25 05:07N 33°44' W 118°16'0 0.0
2015-Feb-25 04:31N 33°44' W 118°16'0 0.0
2015-Feb-25 03:31N 33°44' W 118°16'0 0.0
2015-Feb-25 02:16N 33°44' W 118°16'0 0.0
2015-Feb-25 01:31N 33°44' W 118°16'0 0.0
2015-Feb-25 00:31N 33°44' W 118°16'0 0.4
2015-Feb-24 23:31N 33°44' W 118°16'1 0.6
2015-Feb-24 22:33N 33°43' W 118°16'11 7.3
2015-Feb-24 21:04N 33°35' W 118°08'0 0.3
2015-Feb-24 20:33N 33°35' W 118°08'0 0.0
2015-Feb-24 17:22N 33°35' W 118°08'  
2015-Feb-20 21:05N 33°35' W 118°08'0 0.0
2015-Feb-20 19:05N 33°35' W 118°08'0 0.0
2015-Feb-20 18:33N 33°35' W 118°08'1 0.9
2015-Feb-20 17:11N 33°34' W 118°07'13 3.4
2015-Feb-20 13:24N 33°44' W 118°16'0 0.0
2015-Feb-20 12:29N 33°44' W 118°16'0 0.0
2015-Feb-20 11:33N 33°44' W 118°16'0 0.0
2015-Feb-20 08:05N 33°44' W 118°16'0 0.0
2015-Feb-20 07:18N 33°44' W 118°16'0 0.0
2015-Feb-20 06:25N 33°44' W 118°16'0 0.0
2015-Feb-20 05:33N 33°44' W 118°16'0 0.0
2015-Feb-20 04:33N 33°44' W 118°16'0 0.0
2015-Feb-20 03:09N 33°44' W 118°16'0 0.0
2015-Feb-20 01:22N 33°44' W 118°16'1 1.1
2015-Feb-20 00:20N 33°43' W 118°16'10 8.5
2015-Feb-19 23:06N 33°35' W 118°08'0 0.5
2015-Feb-19 22:34N 33°35' W 118°08'0 0.2
2015-Feb-19 21:32N 33°35' W 118°08'1 1.2
2015-Feb-19 20:33N 33°34' W 118°07'0 0.0
2015-Feb-19 19:33N 33°34' W 118°07'0 0.0
2015-Feb-19 18:30N 33°34' W 118°07'0 0.0
2015-Feb-19 17:31N 33°34' W 118°07'7 7.1
2015-Feb-19 16:33N 33°39' W 118°12'4 0.3
2015-Feb-19 01:32N 33°36' W 118°09'1 1.2
2015-Feb-19 00:30N 33°35' W 118°08'0 0.1
2015-Feb-18 23:33N 33°35' W 118°08'0 0.0
2015-Feb-18 22:32N 33°35' W 118°08'0 0.0
2015-Feb-18 21:25N 33°35' W 118°08'0 0.0
2015-Feb-18 20:33N 33°35' W 118°08'12 5.8
2015-Feb-18 18:33N 33°44' W 118°16'10 1.2
2015-Feb-18 10:04N 33°36' W 118°09'1 2.2
2015-Feb-18 09:30N 33°35' W 118°08'0 0.1
2015-Feb-18 08:09N 33°35' W 118°08'0 0.0
2015-Feb-18 07:32N 33°35' W 118°08'0 0.1
2015-Feb-18 06:32N 33°35' W 118°08'8 8.4
2015-Feb-18 05:33N 33°41' W 118°14'3 1.6
2015-Feb-18 03:22N 33°44' W 118°16'0 0.0
2015-Feb-18 01:16N 33°44' W 118°16'13 2.1
2015-Feb-17 19:08N 33°34' W 118°07'1 0.8
2015-Feb-17 17:32N 33°35' W 118°08'5 4.7
2015-Feb-17 16:31N 33°39' W 118°11'  

Dump ship's entire track history